createdAt,value
2022-09-12T00:05:06.187Z,99994.94
2022-09-12T00:10:28.008Z,99993.56
2022-09-12T00:15:49.788Z,99996.00
2022-09-12T00:21:11.599Z,99991.13
2022-09-12T00:26:34.073Z,99997.59
2022-09-12T00:31:55.858Z,100000.25
2022-09-12T00:37:17.685Z,99997.06
2022-09-12T00:42:39.481Z,100000.19
2022-09-12T00:48:03.271Z,99994.81
2022-09-12T00:53:25.947Z,99998.44
2022-09-12T00:59:02.352Z,100014.16
2022-09-12T01:04:27.799Z,100013.59
2022-09-12T01:09:49.858Z,100018.38
2022-09-12T01:15:12.644Z,100005.81
2022-09-12T01:21:08.543Z,100021.41
2022-09-12T01:26:55.113Z,100018.44
2022-09-12T01:32:16.853Z,100027.31
2022-09-12T01:38:04.730Z,100017.47
2022-09-12T01:43:38.978Z,100025.69
2022-09-12T01:49:15.830Z,100027.44
2022-09-12T01:54:43.270Z,100033.28
2022-09-12T02:00:10.208Z,100032.09
2022-09-12T02:05:40.407Z,100039.41
2022-09-12T02:11:08.026Z,100033.59
2022-09-12T02:16:56.741Z,100035.75
2022-09-12T02:22:22.516Z,100038.16
2022-09-12T02:27:50.003Z,100027.31
2022-09-12T02:33:26.515Z,100035.97
2022-09-12T02:38:48.825Z,100045.66
2022-09-12T02:44:10.660Z,100038.34
2022-09-12T02:49:33.084Z,100047.28
2022-09-12T02:54:55.373Z,100046.38
2022-09-12T03:00:17.350Z,100050.59
2022-09-12T03:05:49.955Z,100047.22
2022-09-12T03:11:47.307Z,100043.59
2022-09-12T03:17:35.756Z,100055.31
2022-09-12T03:23:07.454Z,100057.81
2022-09-12T03:28:31.084Z,100062.88
2022-09-12T03:33:52.858Z,100073.16
2022-09-12T03:39:15.018Z,100079.09
2022-09-12T03:44:36.837Z,100080.84
2022-09-12T03:49:58.606Z,100092.28
2022-09-12T03:55:20.409Z,100091.00
2022-09-12T04:00:42.242Z,100088.66
2022-09-12T04:06:04.326Z,100105.25
2022-09-12T04:11:26.149Z,100102.25
2022-09-12T04:16:47.994Z,100107.31
2022-09-12T04:22:09.786Z,100104.63
2022-09-12T04:27:31.576Z,100111.75
2022-09-12T04:32:53.346Z,100116.06
2022-09-12T04:38:15.238Z,100124.56
2022-09-12T04:43:37.016Z,100124.06
2022-09-12T04:48:58.839Z,100131.41
2022-09-12T04:54:21.114Z,100137.28
2022-09-12T04:59:42.872Z,100144.19
2022-09-12T05:05:05.234Z,100145.53
2022-09-12T05:10:26.999Z,100134.63
2022-09-12T05:15:56.105Z,100143.19
2022-09-12T05:21:20.433Z,100151.53
2022-09-12T05:26:42.263Z,100145.66
2022-09-12T05:32:04.181Z,100154.25
2022-09-12T05:37:25.954Z,100161.03
2022-09-12T05:42:47.733Z,100160.53
2022-09-12T05:48:09.662Z,100161.03
2022-09-12T05:53:31.482Z,100162.09
2022-09-12T05:58:56.275Z,100160.97
2022-09-12T06:04:18.108Z,100153.91
2022-09-12T06:09:39.962Z,100160.06
2022-09-12T06:15:01.730Z,100164.19
2022-09-12T06:20:23.578Z,100159.81
2022-09-12T06:25:49.122Z,100157.91
2022-09-12T06:31:13.779Z,100164.00
2022-09-12T06:36:41.918Z,100156.41
2022-09-12T06:42:03.790Z,100178.38
2022-09-12T06:47:25.673Z,100177.50
2022-09-12T06:52:49.553Z,100171.44
2022-09-12T06:58:11.338Z,100178.78
2022-09-12T07:03:34.020Z,100181.72
2022-09-12T07:08:58.051Z,100177.63
2022-09-12T07:14:19.836Z,100182.66
2022-09-12T07:19:41.605Z,100195.78
2022-09-12T07:25:03.576Z,100208.63
2022-09-12T07:30:25.451Z,100211.63
2022-09-12T07:35:47.296Z,100217.06
2022-09-12T07:41:24.350Z,100217.88
2022-09-12T07:46:46.132Z,100229.19
2022-09-12T07:52:09.188Z,100226.44
2022-09-12T07:57:31.036Z,100243.50
2022-09-12T08:02:53.488Z,100241.09
2022-09-12T08:08:15.287Z,100253.94
2022-09-12T08:13:39.076Z,100237.75
2022-09-12T08:19:02.114Z,100243.50
2022-09-12T08:24:23.912Z,100247.19
2022-09-12T08:29:45.678Z,100249.72
2022-09-12T08:35:07.761Z,100245.06
2022-09-12T08:40:30.115Z,100245.66
2022-09-12T08:46:02.309Z,100244.31
2022-09-12T08:51:24.942Z,100248.38
2022-09-12T08:56:48.151Z,100247.91
2022-09-12T09:02:31.721Z,100256.75
2022-09-12T09:08:14.978Z,100257.19
2022-09-12T09:14:01.888Z,100253.91
2022-09-12T09:19:34.520Z,100246.09
2022-09-12T09:25:02.317Z,100254.44
2022-09-12T09:30:24.119Z,100259.72
2022-09-12T09:35:48.779Z,100259.81
2022-09-12T09:41:25.028Z,100258.25
2022-09-12T09:46:50.272Z,100272.16
2022-09-12T09:52:16.218Z,100271.91
2022-09-12T09:57:40.013Z,100271.44
2022-09-12T10:03:16.994Z,100281.06
2022-09-12T10:08:38.857Z,100285.09
2022-09-12T10:14:00.725Z,100286.91
2022-09-12T10:19:33.028Z,100290.44
2022-09-12T10:24:58.141Z,100293.88
2022-09-12T10:30:21.540Z,100301.25
2022-09-12T10:35:47.752Z,100300.16
2022-09-12T10:41:11.552Z,100307.84
2022-09-12T10:46:33.357Z,100315.44
2022-09-12T10:51:57.869Z,100302.53
2022-09-12T10:57:31.540Z,100314.53
2022-09-12T11:03:09.482Z,100323.47
2022-09-12T11:08:40.289Z,100325.03
2022-09-12T11:14:20.815Z,100332.59
2022-09-12T11:20:20.172Z,100332.72
2022-09-12T11:26:03.329Z,100328.25
2022-09-12T11:32:02.735Z,100332.28
2022-09-12T11:37:51.636Z,100320.50
2022-09-12T11:43:19.498Z,100331.28
2022-09-12T11:48:51.593Z,100333.50
2022-09-12T11:54:41.434Z,100338.50
2022-09-12T12:00:06.730Z,100330.03
2022-09-12T12:05:57.656Z,100328.19
2022-09-12T12:11:28.498Z,100330.00
2022-09-12T12:16:50.712Z,100327.75
2022-09-12T12:22:21.868Z,100327.53
2022-09-12T12:28:00.566Z,100336.41
2022-09-12T12:33:22.276Z,100339.78
2022-09-12T12:38:44.157Z,100343.06
2022-09-12T12:44:43.332Z,100338.38
2022-09-12T12:50:10.894Z,100331.81
2022-09-12T12:55:38.074Z,100352.19
2022-09-12T13:01:12.135Z,100351.63
2022-09-12T13:06:36.920Z,100348.06
2022-09-12T13:12:05.434Z,100345.97
2022-09-12T13:17:41.508Z,100348.06
2022-09-12T13:23:03.690Z,100362.13
2022-09-12T13:28:29.807Z,100351.63
2022-09-12T13:33:55.554Z,100348.31
2022-09-12T13:39:26.034Z,100347.16
2022-09-12T13:44:51.768Z,100349.38
2022-09-12T13:50:18.648Z,100356.81
2022-09-12T13:55:45.034Z,100338.69
2022-09-12T14:01:09.812Z,100353.78
2022-09-12T14:06:45.750Z,100343.44
2022-09-12T14:12:15.516Z,100345.97
2022-09-12T14:17:38.702Z,100359.31
2022-09-12T14:23:18.003Z,100354.22
2022-09-12T14:28:44.431Z,100361.88
2022-09-12T14:34:17.765Z,100352.75
2022-09-12T14:39:42.946Z,100354.06
2022-09-12T14:45:16.406Z,100359.06
2022-09-12T14:50:38.236Z,100349.75
2022-09-12T14:56:11.925Z,100357.22
2022-09-12T15:01:33.758Z,100367.91
2022-09-12T15:06:55.611Z,100370.59
2022-09-12T15:12:17.424Z,100366.31
2022-09-12T15:17:39.247Z,100368.06
2022-09-12T15:23:01.102Z,100372.78
2022-09-12T15:28:23.985Z,100378.34
2022-09-12T15:33:45.907Z,100376.06
2022-09-12T15:39:09.236Z,100385.81
2022-09-12T15:44:31.100Z,100385.81
2022-09-12T15:49:52.922Z,100388.72
2022-09-12T15:55:20.989Z,100390.94
2022-09-12T16:00:42.821Z,100391.72
2022-09-12T16:06:05.408Z,100387.25
2022-09-12T16:11:27.429Z,100374.13
2022-09-12T16:16:54.099Z,100374.28
2022-09-12T16:22:15.776Z,100396.56
2022-09-12T16:27:37.752Z,100388.03
2022-09-12T16:32:59.826Z,100384.00
2022-09-12T16:38:22.231Z,100394.13
2022-09-12T16:43:44.680Z,100387.53
2022-09-12T16:49:06.617Z,100390.03
2022-09-12T16:54:28.595Z,100388.16
2022-09-12T16:59:50.371Z,100386.00
2022-09-12T17:05:12.180Z,100393.16
2022-09-12T17:10:34.004Z,100384.22
2022-09-12T17:15:56.291Z,100383.09
2022-09-12T17:21:18.261Z,100386.47
2022-09-12T17:26:40.473Z,100388.44
2022-09-12T17:32:02.564Z,100392.50
2022-09-12T17:37:24.734Z,100397.50
2022-09-12T17:42:46.883Z,100395.03
2022-09-12T17:48:11.306Z,100393.97
2022-09-12T17:53:33.187Z,100397.22
2022-09-12T17:58:57.255Z,100399.72
2022-09-12T18:04:19.569Z,100393.69
2022-09-12T18:09:42.224Z,100394.59
2022-09-12T18:15:04.313Z,100393.00
2022-09-12T18:20:26.435Z,100393.50
2022-09-12T18:25:48.595Z,100392.44
2022-09-12T18:31:14.456Z,100393.28
2022-09-12T18:36:36.360Z,100403.94
2022-09-12T18:41:58.264Z,100404.09
2022-09-12T18:47:20.353Z,100401.63
2022-09-12T18:52:42.180Z,100394.13
2022-09-12T18:58:04.021Z,100377.84
2022-09-12T19:03:26.511Z,100384.22
2022-09-12T19:08:49.959Z,100385.78
2022-09-12T19:14:12.091Z,100389.06
2022-09-12T19:19:36.603Z,100396.72
2022-09-12T19:25:00.626Z,100397.84
2022-09-12T19:30:22.459Z,100390.28
2022-09-12T19:35:44.325Z,100388.16
2022-09-12T19:41:12.269Z,100394.91
2022-09-12T19:46:36.694Z,100388.78
2022-09-12T19:51:58.597Z,100387.88
2022-09-12T19:57:20.371Z,100387.75
2022-09-12T20:02:42.570Z,100392.81
2022-09-12T20:08:04.513Z,100385.00
2022-09-12T20:13:26.383Z,100385.41
2022-09-12T20:18:52.123Z,100379.81
2022-09-12T20:24:14.485Z,100376.81
2022-09-12T20:29:36.371Z,100380.75
2022-09-12T20:34:58.127Z,100382.88
2022-09-12T20:40:19.921Z,100378.53
2022-09-12T20:45:41.767Z,100387.22
2022-09-12T20:51:03.906Z,100384.88
2022-09-12T20:56:26.520Z,100390.41
2022-09-12T21:01:48.479Z,100389.19
2022-09-12T21:07:10.369Z,100381.72
2022-09-12T21:12:32.150Z,100375.78
2022-09-12T21:17:53.961Z,100381.38
2022-09-12T21:23:15.735Z,100376.63
2022-09-12T21:28:37.543Z,100382.59
2022-09-12T21:33:59.271Z,100387.84
2022-09-12T21:39:21.057Z,100380.34
2022-09-12T21:44:42.835Z,100373.44
2022-09-12T21:50:09.236Z,100379.06
2022-09-12T21:55:31.053Z,100380.63
2022-09-12T22:00:52.858Z,100371.00
2022-09-12T22:06:14.900Z,100366.56
2022-09-12T22:11:36.663Z,100373.38
2022-09-12T22:16:58.504Z,100366.50
2022-09-12T22:22:20.293Z,100360.50
2022-09-12T22:27:42.082Z,100352.22
2022-09-12T22:33:03.952Z,100364.50
2022-09-12T22:38:25.720Z,100357.00
2022-09-12T22:43:47.493Z,100360.00
2022-09-12T22:49:09.631Z,100354.59
2022-09-12T22:54:31.431Z,100352.06
2022-09-12T22:59:53.223Z,100352.53
2022-09-12T23:05:15.128Z,100348.59
2022-09-12T23:10:37.950Z,100351.31
2022-09-12T23:16:01.473Z,100349.06
2022-09-12T23:21:23.642Z,100348.25
2022-09-12T23:26:45.423Z,100318.75
2022-09-12T23:32:07.220Z,100333.44
2022-09-12T23:37:29.603Z,100331.28
2022-09-12T23:42:51.384Z,100322.22
2022-09-12T23:48:13.395Z,100314.72
2022-09-12T23:53:35.556Z,100314.28
2022-09-12T23:58:57.339Z,100331.63
